createdAt,value
2023-04-17T00:00:58.192Z,9.15
2023-04-17T00:01:55.677Z,9.32
2023-04-17T00:02:53.129Z,9.43
2023-04-17T00:03:52.714Z,9.31
2023-04-17T00:04:52.617Z,9.20
2023-04-17T00:05:49.404Z,9.03
2023-04-17T00:06:46.038Z,9.34
2023-04-17T00:07:43.640Z,9.22
2023-04-17T00:08:40.849Z,9.09
2023-04-17T00:09:37.583Z,9.64
2023-04-17T00:10:34.213Z,9.73
2023-04-17T00:11:30.895Z,9.71
2023-04-17T00:12:27.434Z,9.58
2023-04-17T00:13:24.081Z,9.58
2023-04-17T00:14:20.719Z,9.40
2023-04-17T00:15:17.305Z,9.68
2023-04-17T00:16:13.922Z,9.54
2023-04-17T00:17:10.654Z,9.48
2023-04-17T00:18:07.179Z,9.32
2023-04-17T00:19:03.789Z,9.34
2023-04-17T00:20:00.655Z,9.30
2023-04-17T00:20:57.361Z,9.24
2023-04-17T00:21:53.926Z,9.31
2023-04-17T00:22:50.565Z,9.20
2023-04-17T00:23:47.171Z,9.21
2023-04-17T00:24:43.924Z,9.06
2023-04-17T00:25:40.506Z,9.19
2023-04-17T00:26:37.064Z,9.05
2023-04-17T00:27:33.691Z,9.34
2023-04-17T00:28:30.592Z,9.34
2023-04-17T00:29:27.394Z,9.09
2023-04-17T00:30:24.051Z,9.21
2023-04-17T00:31:20.859Z,9.11
2023-04-17T00:32:17.460Z,8.81
2023-04-17T00:33:14.145Z,8.96
2023-04-17T00:34:10.741Z,8.97
2023-04-17T00:35:07.734Z,8.98
2023-04-17T00:36:04.759Z,9.29
2023-04-17T00:37:01.393Z,9.15
2023-04-17T00:37:57.932Z,8.99
2023-04-17T00:38:54.562Z,9.09
2023-04-17T00:39:51.255Z,9.03
2023-04-17T00:40:48.931Z,9.02
2023-04-17T00:41:45.546Z,8.96
2023-04-17T00:42:42.202Z,8.96
2023-04-17T00:43:39.011Z,9.00
2023-04-17T00:44:35.616Z,8.88
2023-04-17T00:45:32.775Z,9.00
2023-04-17T00:46:29.921Z,8.95
2023-04-17T00:47:27.163Z,9.16
2023-04-17T00:48:24.297Z,8.97
2023-04-17T00:49:20.921Z,8.94
2023-04-17T00:50:17.781Z,8.98
2023-04-17T00:51:14.539Z,8.87
2023-04-17T00:52:11.690Z,9.03
2023-04-17T00:53:08.397Z,9.12
2023-04-17T00:54:05.683Z,8.88
2023-04-17T00:55:02.749Z,9.05
2023-04-17T00:56:01.146Z,8.56
2023-04-17T00:56:58.289Z,8.63
2023-04-17T00:57:56.252Z,8.90
2023-04-17T00:58:54.686Z,9.09
2023-04-17T00:59:51.327Z,8.64
2023-04-17T01:00:49.704Z,9.15
2023-04-17T01:01:46.360Z,8.95
2023-04-17T01:02:43.205Z,8.91
2023-04-17T01:03:40.083Z,9.00
2023-04-17T01:04:36.913Z,9.10
2023-04-17T01:05:35.627Z,9.12
2023-04-17T01:06:32.250Z,8.93
2023-04-17T01:07:30.540Z,8.87
2023-04-17T01:08:27.384Z,8.90
2023-04-17T01:09:24.064Z,8.94
2023-04-17T01:10:20.744Z,9.10
2023-04-17T01:11:17.681Z,8.96
2023-04-17T01:12:22.088Z,8.83
2023-04-17T01:13:18.723Z,8.96
2023-04-17T01:14:15.535Z,8.95
2023-04-17T01:15:12.670Z,8.88
2023-04-17T01:16:09.257Z,8.79
2023-04-17T01:17:05.955Z,8.86
2023-04-17T01:18:03.548Z,8.79
2023-04-17T01:19:00.867Z,8.86
2023-04-17T01:19:57.985Z,8.68
2023-04-17T01:20:54.532Z,8.79
2023-04-17T01:21:51.221Z,8.79
2023-04-17T01:22:53.514Z,8.69
2023-04-17T01:23:54.684Z,8.69
2023-04-17T01:24:51.350Z,8.82
2023-04-17T01:25:48.043Z,9.09
2023-04-17T01:26:44.671Z,8.97
2023-04-17T01:27:42.178Z,8.74
2023-04-17T01:28:38.743Z,8.91
2023-04-17T01:29:35.776Z,9.04
2023-04-17T01:30:32.562Z,9.45
2023-04-17T01:31:29.434Z,9.48
2023-04-17T01:32:26.077Z,9.24
2023-04-17T01:33:22.657Z,9.33
2023-04-17T01:34:19.241Z,9.49
2023-04-17T01:35:16.077Z,9.40
2023-04-17T01:36:12.843Z,8.92
2023-04-17T01:37:09.451Z,9.10
2023-04-17T01:38:06.196Z,8.77
2023-04-17T01:39:02.968Z,9.06
2023-04-17T01:39:59.954Z,8.92
2023-04-17T01:40:56.572Z,8.88
2023-04-17T01:41:56.569Z,8.94
2023-04-17T01:42:53.325Z,9.23
2023-04-17T01:43:50.388Z,8.60
2023-04-17T01:44:47.038Z,9.16
2023-04-17T01:45:43.582Z,9.09
2023-04-17T01:46:40.234Z,8.82
2023-04-17T01:47:37.161Z,8.99
2023-04-17T01:48:34.225Z,9.32
2023-04-17T01:49:30.937Z,9.36
2023-04-17T01:50:27.883Z,9.30
2023-04-17T01:51:24.557Z,8.67
2023-04-17T01:52:21.238Z,9.00
2023-04-17T01:53:17.825Z,9.01
2023-04-17T01:54:15.595Z,9.17
2023-04-17T01:55:12.432Z,9.32
2023-04-17T01:56:09.165Z,9.06
2023-04-17T01:57:05.787Z,8.68
2023-04-17T01:58:02.406Z,8.68
2023-04-17T01:58:59.037Z,8.75
2023-04-17T01:59:56.095Z,8.63
2023-04-17T02:00:52.693Z,8.44
2023-04-17T02:01:50.257Z,8.70
2023-04-17T02:02:47.129Z,8.57
2023-04-17T02:03:44.027Z,8.64
2023-04-17T02:04:40.976Z,8.88
2023-04-17T02:05:37.641Z,8.88
2023-04-17T02:06:34.266Z,8.74
2023-04-17T02:07:30.864Z,8.71
2023-04-17T02:08:27.557Z,8.72
2023-04-17T02:09:24.108Z,8.86
2023-04-17T02:10:20.764Z,8.70
2023-04-17T02:11:17.406Z,8.60
2023-04-17T02:12:13.967Z,8.95
2023-04-17T02:13:10.855Z,9.06
2023-04-17T02:14:08.280Z,8.94
2023-04-17T02:15:05.334Z,8.71
2023-04-17T02:16:02.362Z,8.84
2023-04-17T02:16:59.097Z,8.67
2023-04-17T02:17:55.837Z,8.73
2023-04-17T02:18:52.580Z,8.81
2023-04-17T02:19:49.157Z,8.74
2023-04-17T02:20:45.727Z,8.60
2023-04-17T02:21:42.444Z,8.75
2023-04-17T02:22:39.035Z,8.91
2023-04-17T02:23:35.869Z,8.36
2023-04-17T02:24:32.520Z,8.82
2023-04-17T02:25:29.461Z,8.82
2023-04-17T02:26:26.167Z,8.49
2023-04-17T02:27:22.772Z,8.70
2023-04-17T02:28:19.440Z,8.89
2023-04-17T02:29:16.106Z,8.63
2023-04-17T02:30:12.949Z,8.52
2023-04-17T02:31:10.957Z,8.55
2023-04-17T02:32:07.668Z,8.82
2023-04-17T02:33:04.248Z,8.80
2023-04-17T02:34:00.955Z,8.76
2023-04-17T02:34:57.499Z,8.77
2023-04-17T02:35:54.071Z,8.79
2023-04-17T02:36:50.987Z,8.65
2023-04-17T02:37:47.993Z,8.79
2023-04-17T02:38:44.625Z,8.81
2023-04-17T02:39:41.256Z,8.59
2023-04-17T02:40:37.850Z,8.72
2023-04-17T02:41:34.473Z,8.67
2023-04-17T02:42:31.070Z,8.58
2023-04-17T02:43:27.702Z,8.67
2023-04-17T02:44:24.302Z,8.97
2023-04-17T02:45:20.961Z,8.69
2023-04-17T02:46:17.615Z,8.54
2023-04-17T02:47:14.207Z,8.32
2023-04-17T02:48:10.819Z,8.60
2023-04-17T02:49:07.459Z,8.57
2023-04-17T02:50:04.932Z,8.46
2023-04-17T02:51:01.645Z,8.54
2023-04-17T02:51:58.479Z,8.52
2023-04-17T02:52:55.088Z,8.41
2023-04-17T02:53:51.664Z,8.37
2023-04-17T02:54:48.466Z,8.35
2023-04-17T02:55:45.222Z,8.42
2023-04-17T02:56:41.789Z,8.30
2023-04-17T02:57:38.392Z,8.28
2023-04-17T02:58:35.042Z,8.28
2023-04-17T02:59:31.774Z,8.41
2023-04-17T03:00:29.195Z,8.40
2023-04-17T03:01:26.408Z,8.27
2023-04-17T03:02:23.469Z,8.37
2023-04-17T03:03:20.456Z,8.35
2023-04-17T03:04:17.137Z,8.31
2023-04-17T03:05:15.047Z,8.27
2023-04-17T03:06:11.684Z,8.33
2023-04-17T03:07:10.406Z,8.25
2023-04-17T03:08:07.258Z,8.17
2023-04-17T03:09:03.980Z,8.28
2023-04-17T03:10:00.573Z,8.30
2023-04-17T03:10:57.154Z,8.20
2023-04-17T03:11:53.762Z,7.45
2023-04-17T03:12:50.775Z,7.92
2023-04-17T03:13:47.375Z,8.06
2023-04-17T03:14:44.257Z,8.23
2023-04-17T03:15:41.267Z,8.22
2023-04-17T03:16:37.858Z,8.30
2023-04-17T03:17:34.559Z,8.07
2023-04-17T03:18:31.978Z,8.27
2023-04-17T03:19:28.575Z,8.28
2023-04-17T03:20:25.208Z,8.29
2023-04-17T03:21:21.790Z,7.91
2023-04-17T03:22:18.539Z,8.40
2023-04-17T03:23:15.452Z,8.41
2023-04-17T03:24:12.867Z,8.38
2023-04-17T03:25:10.050Z,8.16
2023-04-17T03:26:06.672Z,8.43
2023-04-17T03:27:03.347Z,8.41
2023-04-17T03:27:59.966Z,8.30
2023-04-17T03:28:56.627Z,8.28
2023-04-17T03:29:55.539Z,8.31
2023-04-17T03:30:52.219Z,8.33
2023-04-17T03:31:48.893Z,8.36
2023-04-17T03:32:45.526Z,8.43
2023-04-17T03:33:42.195Z,8.48
2023-04-17T03:34:38.849Z,8.33
2023-04-17T03:35:35.526Z,8.21
2023-04-17T03:36:32.553Z,8.42
2023-04-17T03:37:29.158Z,8.35
2023-04-17T03:38:25.803Z,8.29
2023-04-17T03:39:22.478Z,8.24
2023-04-17T03:40:19.083Z,8.26
2023-04-17T03:41:15.786Z,8.29
2023-04-17T03:42:14.783Z,8.50
2023-04-17T03:43:11.488Z,8.52
2023-04-17T03:44:09.211Z,8.44
2023-04-17T03:45:06.413Z,8.40
2023-04-17T03:46:03.016Z,8.30
2023-04-17T03:46:59.624Z,8.32
2023-04-17T03:47:56.322Z,8.42
2023-04-17T03:48:52.949Z,8.40
2023-04-17T03:49:49.551Z,8.45
2023-04-17T03:50:46.226Z,8.37
2023-04-17T03:51:42.917Z,8.33
2023-04-17T03:52:39.469Z,8.36
2023-04-17T03:53:36.235Z,8.30
2023-04-17T03:54:35.688Z,8.32
2023-04-17T03:55:32.723Z,8.35
2023-04-17T03:56:29.297Z,8.47
2023-04-17T03:57:26.463Z,8.40
2023-04-17T03:58:23.026Z,8.34
2023-04-17T03:59:19.647Z,8.37
2023-04-17T04:00:16.804Z,8.48
2023-04-17T04:01:14.606Z,8.57
2023-04-17T04:02:11.393Z,8.49
2023-04-17T04:03:08.184Z,8.92
2023-04-17T04:04:05.210Z,8.69
2023-04-17T04:05:02.061Z,8.45
2023-04-17T04:05:58.760Z,8.46
2023-04-17T04:06:57.576Z,8.40
2023-04-17T04:07:54.456Z,8.48
2023-04-17T04:08:51.555Z,8.65
2023-04-17T04:09:48.169Z,8.71
2023-04-17T04:10:45.405Z,8.40
2023-04-17T04:11:41.990Z,8.69
2023-04-17T04:12:38.582Z,8.38
2023-04-17T04:13:35.322Z,8.70
2023-04-17T04:14:31.947Z,8.63
2023-04-17T04:15:28.563Z,8.68
2023-04-17T04:16:25.219Z,8.73
2023-04-17T04:17:21.916Z,8.58
2023-04-17T04:18:18.770Z,8.45
2023-04-17T04:19:15.481Z,8.15
2023-04-17T04:20:12.150Z,8.27
2023-04-17T04:21:08.823Z,8.34
2023-04-17T04:22:06.903Z,8.44
2023-04-17T04:23:04.679Z,8.50
2023-04-17T04:24:02.717Z,8.55
2023-04-17T04:24:59.438Z,8.54
2023-04-17T04:26:01.705Z,8.43
2023-04-17T04:27:04.476Z,8.47
2023-04-17T04:28:02.257Z,8.43
2023-04-17T04:29:00.158Z,8.46
2023-04-17T04:29:58.934Z,8.47
2023-04-17T04:30:55.837Z,8.67
2023-04-17T04:31:52.853Z,8.63
2023-04-17T04:32:49.594Z,8.51
2023-04-17T04:33:46.566Z,8.37
2023-04-17T04:34:44.670Z,8.37
2023-04-17T04:35:41.921Z,8.79
2023-04-17T04:36:50.309Z,8.66
2023-04-17T04:37:46.903Z,8.69
2023-04-17T04:38:43.506Z,8.84
2023-04-17T04:39:40.162Z,9.00
2023-04-17T04:40:38.454Z,9.09
2023-04-17T04:41:35.098Z,9.11
2023-04-17T04:42:31.826Z,9.39
2023-04-17T04:43:33.576Z,9.15
2023-04-17T04:44:30.277Z,9.09
2023-04-17T04:45:26.927Z,8.75
2023-04-17T04:46:23.512Z,8.98
2023-04-17T04:47:20.404Z,9.18
2023-04-17T04:48:17.022Z,8.95
2023-04-17T04:49:13.773Z,8.86
2023-04-17T04:50:10.748Z,9.04
2023-04-17T04:51:07.555Z,9.13
2023-04-17T04:52:04.240Z,9.01
2023-04-17T04:53:00.870Z,9.03
2023-04-17T04:53:57.560Z,8.95
2023-04-17T04:54:54.287Z,8.84
2023-04-17T04:55:50.884Z,8.77
2023-04-17T04:56:47.420Z,8.92
2023-04-17T04:57:43.967Z,9.00
2023-04-17T04:58:40.586Z,8.91
2023-04-17T04:59:38.961Z,9.11
2023-04-17T05:00:35.756Z,9.46
2023-04-17T05:01:32.793Z,9.48
2023-04-17T05:02:29.667Z,9.47
2023-04-17T05:03:26.456Z,9.41
2023-04-17T05:04:23.723Z,9.06
2023-04-17T05:05:20.617Z,9.35
2023-04-17T05:06:17.245Z,9.32
2023-04-17T05:07:13.994Z,9.33
2023-04-17T05:08:10.666Z,9.58
2023-04-17T05:09:07.421Z,9.34
2023-04-17T05:10:06.358Z,9.47
2023-04-17T05:11:03.695Z,9.63
2023-04-17T05:12:00.305Z,9.60
2023-04-17T05:12:56.899Z,9.57
2023-04-17T05:13:53.504Z,9.58
2023-04-17T05:14:50.162Z,9.82
2023-04-17T05:15:46.780Z,9.58
2023-04-17T05:16:43.403Z,9.55
2023-04-17T05:17:40.171Z,9.81
2023-04-17T05:18:36.810Z,9.70
2023-04-17T05:19:33.526Z,9.56
2023-04-17T05:20:30.822Z,9.88
2023-04-17T05:21:29.239Z,10.12
2023-04-17T05:22:27.615Z,10.08
2023-04-17T05:23:24.279Z,10.00
2023-04-17T05:24:20.898Z,9.93
2023-04-17T05:25:19.734Z,9.87
2023-04-17T05:26:16.617Z,9.77
2023-04-17T05:27:13.206Z,9.61
2023-04-17T05:28:09.793Z,9.93
2023-04-17T05:29:06.670Z,9.98
2023-04-17T05:30:03.852Z,9.83
2023-04-17T05:31:00.774Z,10.26
2023-04-17T05:31:57.557Z,10.13
2023-04-17T05:32:54.551Z,10.36
2023-04-17T05:33:51.221Z,10.25
2023-04-17T05:34:47.997Z,10.02
2023-04-17T05:35:44.655Z,10.14
2023-04-17T05:36:41.372Z,10.30
2023-04-17T05:37:38.038Z,10.39
2023-04-17T05:38:34.677Z,10.38
2023-04-17T05:39:31.242Z,10.10
2023-04-17T05:40:27.887Z,10.31
2023-04-17T05:41:24.677Z,10.43
2023-04-17T05:42:21.292Z,10.42
2023-04-17T05:43:17.904Z,10.60
2023-04-17T05:44:14.470Z,10.58
2023-04-17T05:45:18.397Z,10.85
2023-04-17T05:46:15.058Z,10.93
2023-04-17T05:47:11.670Z,10.98
2023-04-17T05:48:08.533Z,10.99
2023-04-17T05:49:05.122Z,11.16
2023-04-17T05:50:01.799Z,11.43
2023-04-17T05:50:58.463Z,11.44
2023-04-17T05:51:55.169Z,11.18
2023-04-17T05:52:52.080Z,10.95
2023-04-17T05:53:48.854Z,10.55
2023-04-17T05:54:45.654Z,10.87
2023-04-17T05:55:42.330Z,10.72
2023-04-17T05:56:39.362Z,11.24
2023-04-17T05:57:36.467Z,11.14
2023-04-17T05:58:33.163Z,11.28
2023-04-17T05:59:29.765Z,11.20
2023-04-17T06:00:26.327Z,11.82
2023-04-17T06:01:23.073Z,11.64
2023-04-17T06:02:19.788Z,11.53
2023-04-17T06:03:18.308Z,11.26
2023-04-17T06:04:15.598Z,11.43
2023-04-17T06:05:14.254Z,11.48
2023-04-17T06:06:11.434Z,11.46
2023-04-17T06:07:08.326Z,11.36
2023-04-17T06:08:05.083Z,11.74
2023-04-17T06:09:02.368Z,12.00
2023-04-17T06:09:59.494Z,11.99
2023-04-17T06:10:56.423Z,11.75
2023-04-17T06:11:53.020Z,11.74
2023-04-17T06:12:49.756Z,11.71
2023-04-17T06:13:46.929Z,11.97
2023-04-17T06:14:43.867Z,12.32
2023-04-17T06:15:40.554Z,12.20
2023-04-17T06:16:37.277Z,12.09
2023-04-17T06:17:33.941Z,12.18
2023-04-17T06:18:30.648Z,12.10
2023-04-17T06:19:27.335Z,11.96
2023-04-17T06:20:24.058Z,11.99
2023-04-17T06:21:21.287Z,11.65
2023-04-17T06:22:17.898Z,11.73
2023-04-17T06:23:14.582Z,11.93
2023-04-17T06:24:11.246Z,11.97
2023-04-17T06:25:08.270Z,11.92
2023-04-17T06:26:04.942Z,11.71
2023-04-17T06:27:02.105Z,11.87
2023-04-17T06:27:58.647Z,11.98
2023-04-17T06:28:55.820Z,11.67
2023-04-17T06:29:52.406Z,11.90
2023-04-17T06:30:49.030Z,12.11
2023-04-17T06:31:46.349Z,12.11
2023-04-17T06:32:43.541Z,11.59
2023-04-17T06:33:40.298Z,11.81
2023-04-17T06:34:43.477Z,11.61
2023-04-17T06:35:48.979Z,11.70
2023-04-17T06:36:45.661Z,11.00
2023-04-17T06:37:42.389Z,11.81
2023-04-17T06:38:38.932Z,11.65
2023-04-17T06:39:35.600Z,11.45
2023-04-17T06:40:33.110Z,11.48
2023-04-17T06:41:29.966Z,11.82
2023-04-17T06:42:26.576Z,12.00
2023-04-17T06:43:23.276Z,12.16
2023-04-17T06:44:19.903Z,11.94
2023-04-17T06:45:16.707Z,11.93
2023-04-17T06:46:13.389Z,11.98
2023-04-17T06:47:10.033Z,12.05
2023-04-17T06:48:06.777Z,11.67
2023-04-17T06:49:03.435Z,11.93
2023-04-17T06:50:00.036Z,11.94
2023-04-17T06:50:56.675Z,11.73
2023-04-17T06:51:53.303Z,11.94
2023-04-17T06:52:49.920Z,12.09
2023-04-17T06:53:50.092Z,12.11
2023-04-17T06:54:46.652Z,12.24
2023-04-17T06:55:43.358Z,12.25
2023-04-17T06:56:40.910Z,12.43
2023-04-17T06:57:38.296Z,12.88
2023-04-17T06:58:42.319Z,12.80
2023-04-17T06:59:39.104Z,12.60
2023-04-17T07:00:35.943Z,12.42
2023-04-17T07:01:32.845Z,12.51
2023-04-17T07:02:29.620Z,12.16
2023-04-17T07:03:26.492Z,12.22
2023-04-17T07:04:23.332Z,12.76
2023-04-17T07:05:19.950Z,12.74
2023-04-17T07:06:17.083Z,12.51
2023-04-17T07:07:13.706Z,12.29
2023-04-17T07:08:10.452Z,12.19
2023-04-17T07:09:07.202Z,12.38
2023-04-17T07:10:04.604Z,12.77
2023-04-17T07:11:01.925Z,11.96
2023-04-17T07:11:58.628Z,12.38
2023-04-17T07:12:55.323Z,12.76
2023-04-17T07:13:52.048Z,12.52
2023-04-17T07:14:48.724Z,12.62
2023-04-17T07:15:45.423Z,12.65
2023-04-17T07:16:42.227Z,12.61
2023-04-17T07:17:39.000Z,12.34
2023-04-17T07:18:35.750Z,11.91
2023-04-17T07:19:35.352Z,12.82
2023-04-17T07:20:32.026Z,13.03
2023-04-17T07:21:28.879Z,12.99
2023-04-17T07:22:27.231Z,12.67
2023-04-17T07:23:24.081Z,12.65
2023-04-17T07:24:20.681Z,12.60
2023-04-17T07:25:17.306Z,12.99
2023-04-17T07:26:13.911Z,13.09
2023-04-17T07:27:11.091Z,12.77
2023-04-17T07:28:07.896Z,12.99
2023-04-17T07:29:04.588Z,12.78
2023-04-17T07:30:01.356Z,12.99
2023-04-17T07:30:58.252Z,12.92
2023-04-17T07:31:55.074Z,13.14
2023-04-17T07:32:52.512Z,13.22
2023-04-17T07:33:49.351Z,13.58
2023-04-17T07:34:46.106Z,13.17
2023-04-17T07:35:43.498Z,13.42
2023-04-17T07:36:40.105Z,13.01
2023-04-17T07:37:37.196Z,13.24
2023-04-17T07:38:34.135Z,12.78
2023-04-17T07:39:31.728Z,13.08
2023-04-17T07:40:28.470Z,13.09
2023-04-17T07:41:25.562Z,13.32
2023-04-17T07:42:22.268Z,13.16
2023-04-17T07:43:18.982Z,13.04
2023-04-17T07:44:16.164Z,13.09
2023-04-17T07:45:12.820Z,12.98
2023-04-17T07:46:09.414Z,12.81
2023-04-17T07:47:06.154Z,12.84
2023-04-17T07:48:04.495Z,13.01
2023-04-17T07:49:01.182Z,13.08
2023-04-17T07:49:58.056Z,13.21
2023-04-17T07:50:54.776Z,12.89
2023-04-17T07:51:51.352Z,13.49
2023-04-17T07:52:47.952Z,12.74
2023-04-17T07:53:44.538Z,13.94
2023-04-17T07:54:41.114Z,13.97
2023-04-17T07:55:37.742Z,14.03
2023-04-17T07:56:34.673Z,13.68
2023-04-17T07:57:32.957Z,13.87
2023-04-17T07:58:29.598Z,13.53
2023-04-17T07:59:26.286Z,13.18
2023-04-17T08:00:24.088Z,13.06
2023-04-17T08:01:23.417Z,13.49
2023-04-17T08:02:21.285Z,13.57
2023-04-17T08:03:22.422Z,13.32
2023-04-17T08:04:19.447Z,13.55
2023-04-17T08:05:16.283Z,13.35
2023-04-17T08:06:12.934Z,13.31
2023-04-17T08:07:11.144Z,13.49
2023-04-17T08:08:08.025Z,13.96
2023-04-17T08:09:04.723Z,14.41
2023-04-17T08:10:01.324Z,14.43
2023-04-17T08:10:58.028Z,14.30
2023-04-17T08:11:57.863Z,13.87
2023-04-17T08:12:55.601Z,13.90
2023-04-17T08:13:52.232Z,13.89
2023-04-17T08:14:48.932Z,13.97
2023-04-17T08:15:45.902Z,13.90
2023-04-17T08:16:42.604Z,13.92
2023-04-17T08:17:39.263Z,13.93
2023-04-17T08:18:37.759Z,14.11
2023-04-17T08:19:34.659Z,13.83
2023-04-17T08:20:31.390Z,14.19
2023-04-17T08:21:28.017Z,14.06
2023-04-17T08:22:28.830Z,13.84
2023-04-17T08:23:25.998Z,14.01
2023-04-17T08:24:22.664Z,14.21
2023-04-17T08:25:19.381Z,14.51
2023-04-17T08:26:19.090Z,14.31
2023-04-17T08:27:16.040Z,14.22
2023-04-17T08:28:12.720Z,14.51
2023-04-17T08:29:09.436Z,14.60
2023-04-17T08:30:09.527Z,14.47
2023-04-17T08:31:08.788Z,14.18
2023-04-17T08:32:13.425Z,14.21
2023-04-17T08:33:13.474Z,14.76
2023-04-17T08:34:15.053Z,14.31
2023-04-17T08:35:13.970Z,14.40
2023-04-17T08:36:11.306Z,14.15
2023-04-17T08:37:08.043Z,13.65
2023-04-17T08:38:04.894Z,13.54
2023-04-17T08:39:01.882Z,13.05
2023-04-17T08:39:58.523Z,13.28
2023-04-17T08:41:02.652Z,13.54
2023-04-17T08:42:01.105Z,13.64
2023-04-17T08:43:00.315Z,13.82
2023-04-17T08:43:59.840Z,13.59
2023-04-17T08:45:01.870Z,13.70
2023-04-17T08:45:58.650Z,13.89
2023-04-17T08:46:58.761Z,13.26
2023-04-17T08:47:55.508Z,13.07
2023-04-17T08:48:52.372Z,13.11
2023-04-17T08:49:50.588Z,12.97
2023-04-17T08:50:49.249Z,12.98
2023-04-17T08:51:47.171Z,13.02
2023-04-17T08:52:46.554Z,13.28
2023-04-17T08:53:43.529Z,13.62
2023-04-17T08:54:40.404Z,13.45
2023-04-17T08:55:37.108Z,12.59
2023-04-17T08:56:33.706Z,13.14
2023-04-17T08:57:30.446Z,13.43
2023-04-17T08:58:32.060Z,13.58
2023-04-17T08:59:28.794Z,13.80
2023-04-17T09:00:56.012Z,13.74
2023-04-17T09:02:08.983Z,14.21
2023-04-17T09:03:08.273Z,14.11
2023-04-17T09:04:05.578Z,13.66
2023-04-17T09:05:02.732Z,13.69
2023-04-17T09:05:59.682Z,13.34
2023-04-17T09:06:56.350Z,13.11
2023-04-17T09:08:21.818Z,13.16
2023-04-17T09:09:18.407Z,13.41
2023-04-17T09:10:15.010Z,13.67
2023-04-17T09:11:17.861Z,13.57
2023-04-17T09:12:14.608Z,13.58
2023-04-17T09:13:14.794Z,13.15
2023-04-17T09:14:30.602Z,13.12
2023-04-17T09:15:27.561Z,13.02
2023-04-17T09:16:28.503Z,13.60
2023-04-17T09:17:34.428Z,13.87
2023-04-17T09:18:32.360Z,14.07
2023-04-17T09:19:28.873Z,13.64
2023-04-17T09:20:25.554Z,12.78
2023-04-17T09:21:28.345Z,12.86
2023-04-17T09:22:24.919Z,12.37
2023-04-17T09:23:23.444Z,12.57
2023-04-17T09:24:33.578Z,12.97
2023-04-17T09:25:30.371Z,13.10
2023-04-17T09:26:31.092Z,13.15
2023-04-17T09:27:29.358Z,12.31
2023-04-17T09:28:26.386Z,12.22
2023-04-17T09:29:23.125Z,12.60
2023-04-17T09:30:20.421Z,12.60
2023-04-17T09:31:19.955Z,12.57
2023-04-17T09:32:16.695Z,12.73
2023-04-17T09:33:13.255Z,13.18
2023-04-17T09:34:12.149Z,13.51
2023-04-17T09:35:09.041Z,13.51
2023-04-17T09:36:21.924Z,13.49
2023-04-17T09:37:19.439Z,13.58
2023-04-17T09:38:16.172Z,13.85
2023-04-17T09:39:21.220Z,13.17
2023-04-17T09:40:19.524Z,13.13
2023-04-17T09:41:42.588Z,13.38
2023-04-17T09:42:54.273Z,13.70
2023-04-17T09:43:54.783Z,13.57
2023-04-17T09:44:54.079Z,13.15
2023-04-17T09:45:53.213Z,13.32
2023-04-17T09:46:50.857Z,13.52
2023-04-17T09:47:48.089Z,14.05
2023-04-17T09:48:46.090Z,14.49
2023-04-17T09:49:49.794Z,14.30
2023-04-17T09:50:47.675Z,14.11
2023-04-17T09:51:45.064Z,14.40
2023-04-17T09:52:43.690Z,14.18
2023-04-17T09:53:40.840Z,13.89
2023-04-17T09:54:40.202Z,13.50
2023-04-17T09:55:38.876Z,13.02
2023-04-17T09:56:37.752Z,13.74
2023-04-17T09:57:34.465Z,14.05
2023-04-17T09:58:31.169Z,13.64
2023-04-17T09:59:28.731Z,13.33
2023-04-17T10:00:27.834Z,13.30
2023-04-17T10:01:26.181Z,13.93
2023-04-17T10:02:23.347Z,13.92
2023-04-17T10:03:20.883Z,14.16
2023-04-17T10:04:19.568Z,12.80
2023-04-17T10:05:17.656Z,12.89
2023-04-17T10:06:15.544Z,12.23
2023-04-17T10:07:13.268Z,11.41
2023-04-17T10:08:10.002Z,11.98
2023-04-17T10:09:08.232Z,11.96
2023-04-17T10:10:09.450Z,12.19
2023-04-17T10:11:07.634Z,12.18
2023-04-17T10:12:05.526Z,12.40
2023-04-17T10:13:08.303Z,12.59
2023-04-17T10:14:17.941Z,12.50
2023-04-17T10:15:16.007Z,12.68
2023-04-17T10:16:13.080Z,12.75
2023-04-17T10:17:31.863Z,12.96
2023-04-17T10:18:28.984Z,13.29
2023-04-17T10:19:27.629Z,13.26
2023-04-17T10:20:24.395Z,13.24
2023-04-17T10:21:23.248Z,13.31
2023-04-17T10:22:19.898Z,13.32
2023-04-17T10:23:46.418Z,13.34
2023-04-17T10:24:43.417Z,13.26
2023-04-17T10:25:40.070Z,12.98
2023-04-17T10:26:37.855Z,12.77
2023-04-17T10:27:42.854Z,13.16
2023-04-17T10:28:50.417Z,13.40
2023-04-17T10:29:58.405Z,12.76
2023-04-17T10:30:55.574Z,13.07
2023-04-17T10:32:11.028Z,13.54
2023-04-17T10:33:22.010Z,13.48
2023-04-17T10:34:35.281Z,13.60
2023-04-17T10:35:35.052Z,14.13
2023-04-17T10:36:40.802Z,13.89
2023-04-17T10:37:52.746Z,13.76
2023-04-17T10:38:49.461Z,14.12
2023-04-17T10:40:10.533Z,14.08
2023-04-17T10:41:09.464Z,13.76
2023-04-17T10:42:06.827Z,13.65
2023-04-17T10:43:20.493Z,13.57
2023-04-17T10:44:18.427Z,14.07
2023-04-17T10:45:19.327Z,13.56
2023-04-17T10:46:16.135Z,13.00
2023-04-17T10:47:16.000Z,13.09
2023-04-17T10:48:28.211Z,13.66
2023-04-17T10:49:24.957Z,13.79
2023-04-17T10:50:28.637Z,13.86
2023-04-17T10:51:27.128Z,13.87
2023-04-17T10:52:32.994Z,13.64
2023-04-17T10:53:43.459Z,13.59
2023-04-17T10:55:08.127Z,13.34
2023-04-17T10:56:05.448Z,13.73
2023-04-17T10:57:07.853Z,13.19
2023-04-17T10:58:13.822Z,12.26
2023-04-17T10:59:14.479Z,12.60
2023-04-17T11:00:13.933Z,13.61
2023-04-17T11:01:11.473Z,14.17
2023-04-17T11:02:08.318Z,13.90
2023-04-17T11:03:07.072Z,13.58
2023-04-17T11:04:04.887Z,13.41
2023-04-17T11:05:11.129Z,12.83
2023-04-17T11:06:08.078Z,13.34
2023-04-17T11:07:04.807Z,12.99
2023-04-17T11:08:01.629Z,13.37
2023-04-17T11:08:59.619Z,13.38
2023-04-17T11:09:56.259Z,13.88
2023-04-17T11:10:54.302Z,14.17
2023-04-17T11:11:51.124Z,14.45
2023-04-17T11:12:49.024Z,14.37
2023-04-17T11:13:47.145Z,14.45
2023-04-17T11:14:43.825Z,13.42
2023-04-17T11:15:40.705Z,13.87
2023-04-17T11:16:38.989Z,14.37
2023-04-17T11:17:38.560Z,14.88
2023-04-17T11:18:35.213Z,14.07
2023-04-17T11:19:32.450Z,14.81
2023-04-17T11:20:35.857Z,14.85
2023-04-17T11:21:33.409Z,14.69
2023-04-17T11:22:34.027Z,15.42
2023-04-17T11:23:34.098Z,15.79
2023-04-17T11:24:32.003Z,15.33
2023-04-17T11:25:33.931Z,15.93
2023-04-17T11:26:31.037Z,16.13
2023-04-17T11:27:27.932Z,15.29
2023-04-17T11:28:24.533Z,15.58
2023-04-17T11:29:22.850Z,15.25
2023-04-17T11:30:32.478Z,16.32
2023-04-17T11:31:29.186Z,15.31
2023-04-17T11:32:26.026Z,13.98
2023-04-17T11:33:22.703Z,14.02
2023-04-17T11:34:20.489Z,14.72
2023-04-17T11:35:17.187Z,14.56
2023-04-17T11:36:13.906Z,14.42
2023-04-17T11:37:14.176Z,14.02
2023-04-17T11:38:23.740Z,14.05
2023-04-17T11:39:22.767Z,13.90
2023-04-17T11:40:22.912Z,13.78
2023-04-17T11:41:19.527Z,13.42
2023-04-17T11:42:26.640Z,14.19
2023-04-17T11:43:23.942Z,13.17
2023-04-17T11:44:21.265Z,13.12
2023-04-17T11:45:19.872Z,13.40
2023-04-17T11:46:19.291Z,13.26
2023-04-17T11:47:15.952Z,13.26
2023-04-17T11:48:14.705Z,12.97
2023-04-17T11:49:11.893Z,12.09
2023-04-17T11:50:09.023Z,12.53
2023-04-17T11:51:06.722Z,12.60
2023-04-17T11:52:04.746Z,13.13
2023-04-17T11:53:02.859Z,13.14
2023-04-17T11:53:59.958Z,12.17
2023-04-17T11:54:59.510Z,12.99
2023-04-17T11:56:16.488Z,13.21
2023-04-17T11:57:14.550Z,13.39
2023-04-17T11:58:13.832Z,13.14
2023-04-17T11:59:11.065Z,13.43
2023-04-17T12:00:15.174Z,13.60
2023-04-17T12:01:13.208Z,13.78
2023-04-17T12:02:10.180Z,13.63
2023-04-17T12:03:35.708Z,13.35
2023-04-17T12:04:34.827Z,13.38
2023-04-17T12:05:31.999Z,13.26
2023-04-17T12:06:38.563Z,12.39
2023-04-17T12:07:35.418Z,12.69
2023-04-17T12:08:43.117Z,12.84
2023-04-17T12:09:39.850Z,13.17
2023-04-17T12:10:44.099Z,12.73
2023-04-17T12:11:40.687Z,13.42
2023-04-17T12:12:37.247Z,13.58
2023-04-17T12:13:35.553Z,13.43
2023-04-17T12:14:32.589Z,12.58
2023-04-17T12:15:29.275Z,13.14
2023-04-17T12:16:27.925Z,13.72
2023-04-17T12:17:24.695Z,13.23
2023-04-17T12:18:21.282Z,13.39
2023-04-17T12:19:19.877Z,13.79
2023-04-17T12:20:16.689Z,13.69
2023-04-17T12:21:13.998Z,13.64
2023-04-17T12:22:10.594Z,13.20
2023-04-17T12:23:07.274Z,12.65
2023-04-17T12:24:04.014Z,13.23
2023-04-17T12:25:00.877Z,13.95
2023-04-17T12:25:57.534Z,13.80
2023-04-17T12:26:54.673Z,12.93
2023-04-17T12:27:51.462Z,13.59
2023-04-17T12:28:48.201Z,13.89
2023-04-17T12:29:45.065Z,14.16
2023-04-17T12:30:42.793Z,13.87
2023-04-17T12:31:39.459Z,13.86
2023-04-17T12:32:36.116Z,13.92
2023-04-17T12:33:33.290Z,13.36
2023-04-17T12:34:29.883Z,13.49
2023-04-17T12:35:27.413Z,13.60
2023-04-17T12:36:24.122Z,13.15
2023-04-17T12:37:20.863Z,13.50
2023-04-17T12:38:17.864Z,13.83
2023-04-17T12:39:14.501Z,13.80